createdAt,value
2023-04-06T00:01:31.544Z,17.40
2023-04-06T00:03:58.545Z,16.70
2023-04-06T00:06:25.679Z,18.83
2023-04-06T00:08:53.313Z,21.83
2023-04-06T00:11:21.297Z,25.00
2023-04-06T00:13:48.135Z,19.87
2023-04-06T00:16:14.983Z,22.17
2023-04-06T00:18:42.111Z,19.23
2023-04-06T00:21:09.149Z,21.87
2023-04-06T00:23:36.206Z,19.23
2023-04-06T00:26:03.032Z,19.40
2023-04-06T00:28:31.116Z,20.13
2023-04-06T00:30:58.022Z,19.97
2023-04-06T00:33:25.206Z,18.77
2023-04-06T00:35:52.208Z,19.13
2023-04-06T00:38:19.347Z,23.07
2023-04-06T00:40:46.408Z,19.43
2023-04-06T00:43:13.933Z,22.10
2023-04-06T00:45:42.004Z,21.13
2023-04-06T00:48:10.149Z,19.60
2023-04-06T00:50:38.478Z,26.80
2023-04-06T00:53:05.483Z,23.73
2023-04-06T00:55:32.408Z,16.60
2023-04-06T00:58:01.794Z,19.40
2023-04-06T01:00:33.161Z,20.47
2023-04-06T01:03:02.427Z,21.20
2023-04-06T01:05:41.388Z,17.60
2023-04-06T01:08:14.404Z,21.03
2023-04-06T01:10:41.469Z,20.80
2023-04-06T01:13:14.661Z,18.57
2023-04-06T01:15:52.486Z,19.77
2023-04-06T01:18:28.095Z,18.67
2023-04-06T01:21:04.848Z,28.83
2023-04-06T01:23:32.147Z,17.37
2023-04-06T01:25:59.036Z,20.30
2023-04-06T01:28:30.719Z,17.17
2023-04-06T01:31:09.800Z,21.90
2023-04-06T01:33:49.996Z,21.53
2023-04-06T01:36:20.074Z,22.17
2023-04-06T01:38:53.452Z,19.57
2023-04-06T01:41:24.436Z,16.50
2023-04-06T01:43:55.812Z,18.37
2023-04-06T01:46:27.309Z,18.77
2023-04-06T01:48:54.598Z,17.20
2023-04-06T01:51:50.860Z,17.90
2023-04-06T01:54:17.812Z,19.57
2023-04-06T01:57:11.641Z,15.83
2023-04-06T01:59:45.577Z,17.73
2023-04-06T02:02:40.460Z,16.57
2023-04-06T02:05:13.749Z,18.17
2023-04-06T02:07:41.535Z,18.03
2023-04-06T02:10:14.013Z,18.50
2023-04-06T02:12:41.583Z,16.47
2023-04-06T02:15:14.309Z,21.20
2023-04-06T02:17:42.980Z,18.90
2023-04-06T02:20:10.484Z,20.33
2023-04-06T02:22:37.479Z,20.00
2023-04-06T02:25:04.571Z,17.77
2023-04-06T02:27:31.454Z,23.30
2023-04-06T02:29:58.868Z,17.80
2023-04-06T02:32:26.087Z,15.27
2023-04-06T02:34:53.559Z,16.53
2023-04-06T02:37:22.057Z,19.70
2023-04-06T02:39:48.931Z,17.87
2023-04-06T02:42:16.530Z,16.50
2023-04-06T02:44:45.400Z,19.83
2023-04-06T02:47:13.066Z,20.23
2023-04-06T02:49:43.095Z,19.37
2023-04-06T02:52:09.945Z,19.47
2023-04-06T02:54:37.274Z,17.70
2023-04-06T02:57:04.675Z,17.80
2023-04-06T02:59:37.968Z,19.70
2023-04-06T03:02:22.747Z,20.87
2023-04-06T03:04:50.095Z,15.50
2023-04-06T03:07:26.208Z,16.60
2023-04-06T03:09:53.027Z,14.60
2023-04-06T03:12:19.784Z,16.87
2023-04-06T03:15:06.930Z,15.43
2023-04-06T03:17:34.039Z,18.50
2023-04-06T03:20:04.964Z,16.80
2023-04-06T03:22:32.779Z,16.90
2023-04-06T03:25:03.038Z,19.07
2023-04-06T03:27:31.799Z,18.33
2023-04-06T03:29:59.559Z,20.40
2023-04-06T03:32:32.407Z,20.80
2023-04-06T03:34:59.189Z,19.93
2023-04-06T03:37:26.032Z,18.77
2023-04-06T03:39:56.740Z,18.00
2023-04-06T03:42:25.483Z,19.33
2023-04-06T03:44:57.146Z,17.07
2023-04-06T03:47:24.558Z,19.63
2023-04-06T03:49:55.105Z,18.73
2023-04-06T03:52:24.038Z,19.17
2023-04-06T03:54:52.321Z,16.20
2023-04-06T03:57:19.205Z,21.30
2023-04-06T03:59:46.025Z,20.07
2023-04-06T04:02:13.217Z,18.53
2023-04-06T04:04:40.668Z,16.77
2023-04-06T04:07:07.494Z,18.47
2023-04-06T04:09:34.955Z,19.70
2023-04-06T04:12:01.781Z,16.77
2023-04-06T04:14:29.652Z,19.60
2023-04-06T04:16:56.786Z,15.80
2023-04-06T04:19:24.329Z,19.73
2023-04-06T04:21:51.161Z,16.87
2023-04-06T04:24:24.479Z,19.23
2023-04-06T04:26:51.511Z,19.47
2023-04-06T04:29:22.239Z,18.97
2023-04-06T04:31:51.029Z,15.33
2023-04-06T04:34:18.242Z,18.73
2023-04-06T04:36:45.295Z,18.23
2023-04-06T04:39:19.487Z,16.93
2023-04-06T04:41:51.166Z,16.73
2023-04-06T04:44:18.030Z,15.20
2023-04-06T04:46:44.912Z,19.20
2023-04-06T04:49:15.585Z,18.60
2023-04-06T04:51:43.390Z,16.03
2023-04-06T04:54:18.783Z,16.80
2023-04-06T04:56:46.637Z,14.77
2023-04-06T04:59:23.786Z,19.60
2023-04-06T05:01:59.636Z,14.83
2023-04-06T05:04:36.800Z,20.33
2023-04-06T05:07:08.977Z,17.53
2023-04-06T05:09:38.055Z,19.67
2023-04-06T05:12:05.742Z,18.23
2023-04-06T05:14:37.969Z,18.37
2023-04-06T05:17:10.996Z,20.10
2023-04-06T05:19:37.905Z,17.80
2023-04-06T05:22:04.705Z,16.50
2023-04-06T05:24:36.194Z,19.43
2023-04-06T05:27:06.029Z,20.23
2023-04-06T05:29:34.972Z,24.67
2023-04-06T05:32:03.286Z,19.47
2023-04-06T05:34:30.403Z,15.87
2023-04-06T05:36:58.037Z,17.53
2023-04-06T05:39:25.942Z,17.53
2023-04-06T05:41:54.100Z,22.90
2023-04-06T05:44:31.818Z,22.27
2023-04-06T05:47:09.203Z,16.07
2023-04-06T05:49:38.319Z,29.00
2023-04-06T05:52:14.578Z,17.10
2023-04-06T05:54:45.380Z,16.57
2023-04-06T05:57:12.262Z,20.30
2023-04-06T05:59:40.161Z,20.37
2023-04-06T06:02:07.440Z,24.43
2023-04-06T06:04:39.241Z,19.03
2023-04-06T06:07:06.521Z,30.43
2023-04-06T06:09:39.321Z,20.07
2023-04-06T06:12:21.947Z,20.97
2023-04-06T06:14:50.506Z,20.20
2023-04-06T06:17:17.768Z,20.43
2023-04-06T06:19:47.095Z,21.73
2023-04-06T06:22:14.014Z,19.23
2023-04-06T06:24:44.866Z,22.17
2023-04-06T06:27:12.575Z,18.90
2023-04-06T06:29:40.976Z,20.70
2023-04-06T06:32:10.061Z,17.70
2023-04-06T06:34:38.044Z,19.27
2023-04-06T06:37:07.151Z,19.93
2023-04-06T06:39:35.163Z,20.10
2023-04-06T06:42:02.460Z,24.10
2023-04-06T06:44:55.869Z,19.30
2023-04-06T06:47:24.467Z,21.20
2023-04-06T06:49:51.511Z,17.40
2023-04-06T06:52:18.756Z,20.87
2023-04-06T06:54:45.712Z,16.77
2023-04-06T06:57:12.642Z,19.97
2023-04-06T06:59:39.560Z,18.70
2023-04-06T07:02:09.602Z,23.50
2023-04-06T07:04:36.621Z,19.17
2023-04-06T07:07:04.780Z,17.87
2023-04-06T07:09:33.171Z,31.03
2023-04-06T07:12:00.186Z,16.00
2023-04-06T07:14:28.599Z,18.43
2023-04-06T07:16:56.487Z,23.50
2023-04-06T07:19:23.950Z,19.93
2023-04-06T07:21:51.380Z,21.27
2023-04-06T07:24:18.313Z,22.63
2023-04-06T07:26:45.246Z,17.97
2023-04-06T07:29:19.807Z,21.80
2023-04-06T07:31:47.429Z,32.57
2023-04-06T07:34:17.182Z,23.00
2023-04-06T07:36:44.612Z,20.20
2023-04-06T07:39:11.795Z,22.33
2023-04-06T07:41:39.249Z,24.37
2023-04-06T07:44:07.404Z,22.97
2023-04-06T07:46:35.632Z,20.20
2023-04-06T07:49:06.079Z,22.13
2023-04-06T07:51:38.208Z,21.07
2023-04-06T07:54:08.716Z,21.33
2023-04-06T07:56:36.761Z,21.30
2023-04-06T07:59:05.419Z,21.63
2023-04-06T08:01:35.074Z,20.87
2023-04-06T08:04:03.586Z,20.43
2023-04-06T08:06:30.717Z,22.40
2023-04-06T08:09:01.305Z,25.83
2023-04-06T08:11:28.917Z,27.60
2023-04-06T08:13:57.834Z,24.77
2023-04-06T08:16:29.020Z,22.30
2023-04-06T08:18:56.129Z,24.53
2023-04-06T08:21:24.762Z,21.67
2023-04-06T08:24:15.755Z,19.90
2023-04-06T08:27:05.245Z,17.67
2023-04-06T08:29:32.249Z,20.50
2023-04-06T08:31:59.115Z,18.83
2023-04-06T08:34:26.380Z,21.30
2023-04-06T08:36:53.670Z,17.73
2023-04-06T08:39:26.471Z,19.73
2023-04-06T08:41:54.389Z,21.97
2023-04-06T08:44:21.654Z,18.37
2023-04-06T08:46:48.944Z,15.93
2023-04-06T08:49:17.636Z,15.77
2023-04-06T08:51:44.943Z,15.00
2023-04-06T08:54:11.943Z,15.87
2023-04-06T08:56:40.755Z,18.23
2023-04-06T08:59:08.649Z,16.43
2023-04-06T09:01:40.029Z,15.00
2023-04-06T09:04:10.923Z,13.53
2023-04-06T09:06:38.823Z,16.97
2023-04-06T09:09:05.652Z,14.00
2023-04-06T09:11:44.518Z,15.53
2023-04-06T09:14:13.186Z,13.73
2023-04-06T09:16:48.687Z,14.80
2023-04-06T09:19:15.621Z,18.53
2023-04-06T09:21:42.717Z,15.57
2023-04-06T09:24:10.602Z,15.33
2023-04-06T09:26:48.410Z,17.40
2023-04-06T09:29:28.230Z,14.83
2023-04-06T09:32:11.258Z,14.47
2023-04-06T09:37:44.159Z,21.50
2023-04-06T09:40:15.038Z,17.30
2023-04-06T09:42:56.558Z,18.90
2023-04-06T09:45:27.364Z,16.13
2023-04-06T09:47:57.712Z,18.47
2023-04-06T09:50:35.467Z,16.53
2023-04-06T09:53:08.161Z,14.37
2023-04-06T09:55:41.904Z,16.10
2023-04-06T09:58:11.762Z,17.10
2023-04-06T10:01:06.845Z,17.73
2023-04-06T10:03:48.227Z,18.77
2023-04-06T10:06:16.283Z,17.27
2023-04-06T10:08:44.378Z,17.13
2023-04-06T10:11:14.659Z,16.40
2023-04-06T10:13:43.227Z,16.40
2023-04-06T10:16:10.514Z,15.07
2023-04-06T10:18:38.572Z,16.77
2023-04-06T10:21:10.330Z,22.60
2023-04-06T10:26:58.753Z,12.73
2023-04-06T10:29:26.153Z,12.33
2023-04-06T10:31:53.377Z,12.13
2023-04-06T10:34:20.316Z,16.57
2023-04-06T10:36:47.282Z,16.07
2023-04-06T10:39:14.269Z,14.37
2023-04-06T10:41:46.893Z,17.93
2023-04-06T10:44:24.863Z,13.37
2023-04-06T10:46:57.000Z,13.03
2023-04-06T10:49:27.325Z,14.50
2023-04-06T10:51:55.257Z,13.43
2023-04-06T10:54:23.776Z,12.77
2023-04-06T10:56:50.750Z,16.10
2023-04-06T10:59:24.728Z,14.50
2023-04-06T11:01:51.979Z,17.50
2023-04-06T11:04:19.773Z,14.47
2023-04-06T11:06:50.914Z,11.27
2023-04-06T11:09:50.572Z,14.47
2023-04-06T11:12:28.183Z,12.43
2023-04-06T11:15:10.611Z,14.80
2023-04-06T11:17:38.223Z,16.93
2023-04-06T11:20:06.780Z,13.83
2023-04-06T11:22:36.764Z,15.43
2023-04-06T11:25:07.795Z,16.57
2023-04-06T11:27:35.613Z,13.37
2023-04-06T11:30:04.143Z,13.13
2023-04-06T11:32:30.939Z,14.07
2023-04-06T11:34:59.103Z,13.40
2023-04-06T11:37:30.702Z,14.53
2023-04-06T11:40:00.988Z,12.83
2023-04-06T11:42:31.158Z,12.93
2023-04-06T11:44:59.708Z,13.03
2023-04-06T11:47:31.875Z,14.63
2023-04-06T11:50:10.614Z,10.63
2023-04-06T11:52:37.820Z,12.50
2023-04-06T11:55:18.713Z,15.57
2023-04-06T11:57:46.260Z,16.73
2023-04-06T12:00:13.843Z,15.23
2023-04-06T12:02:42.729Z,15.73
2023-04-06T12:05:12.059Z,12.60
2023-04-06T12:10:11.926Z,12.13
2023-04-06T12:12:39.284Z,13.13
2023-04-06T12:15:06.871Z,12.73
2023-04-06T12:17:33.651Z,18.10
2023-04-06T12:20:05.253Z,12.93
2023-04-06T12:22:32.852Z,15.33
2023-04-06T12:24:59.765Z,12.93
2023-04-06T12:27:26.740Z,15.77
2023-04-06T12:29:53.690Z,10.73
2023-04-06T12:32:21.786Z,14.70
2023-04-06T12:34:54.835Z,19.70
2023-04-06T12:37:22.019Z,12.03
2023-04-06T12:39:57.697Z,11.53
2023-04-06T12:42:26.020Z,10.87
2023-04-06T12:44:52.888Z,11.13
2023-04-06T12:47:19.849Z,13.77
2023-04-06T12:49:46.802Z,13.23
2023-04-06T12:52:13.837Z,14.60
2023-04-06T12:54:40.647Z,12.30
2023-04-06T12:57:08.579Z,10.47
2023-04-06T12:59:39.037Z,15.40
2023-04-06T13:02:06.583Z,10.20
2023-04-06T13:04:33.841Z,11.47
2023-04-06T13:07:03.082Z,11.43
2023-04-06T13:09:30.320Z,13.57
2023-04-06T13:12:00.744Z,13.47
2023-04-06T13:14:27.694Z,12.47
2023-04-06T13:16:55.342Z,13.90
2023-04-06T13:19:22.694Z,12.47
2023-04-06T13:21:49.577Z,13.17
2023-04-06T13:24:19.901Z,9.53
2023-04-06T13:26:47.066Z,15.63
2023-04-06T13:29:17.792Z,12.30
2023-04-06T13:31:44.769Z,16.07
2023-04-06T13:34:11.902Z,12.97
2023-04-06T13:37:11.360Z,12.70
2023-04-06T13:39:45.618Z,12.53
2023-04-06T13:42:12.754Z,13.53
2023-04-06T13:44:39.605Z,14.13
2023-04-06T13:47:07.477Z,13.20
2023-04-06T13:49:35.890Z,13.63
2023-04-06T13:52:02.893Z,16.70
2023-04-06T13:54:29.895Z,16.17
2023-04-06T13:56:57.869Z,14.07
2023-04-06T13:59:25.063Z,15.33
2023-04-06T14:01:52.237Z,16.47
2023-04-06T14:04:19.279Z,16.57
2023-04-06T14:06:47.095Z,13.50
2023-04-06T14:09:16.177Z,15.80
2023-04-06T14:11:46.465Z,15.33
2023-04-06T14:14:13.861Z,14.80
2023-04-06T14:16:41.233Z,18.70
2023-04-06T14:19:08.136Z,17.20
2023-04-06T14:21:35.364Z,15.33
2023-04-06T14:24:36.046Z,16.93
2023-04-06T14:27:28.055Z,13.90
2023-04-06T14:33:06.682Z,14.37
2023-04-06T14:35:33.682Z,14.47
2023-04-06T14:38:02.925Z,13.50
2023-04-06T14:40:29.967Z,14.70
2023-04-06T14:42:59.994Z,13.43
2023-04-06T14:45:29.694Z,14.27
2023-04-06T14:47:57.071Z,13.97
2023-04-06T14:50:29.525Z,15.17
2023-04-06T14:53:03.484Z,16.27
2023-04-06T14:55:31.531Z,16.07
2023-04-06T14:57:59.937Z,13.50
2023-04-06T15:00:27.525Z,14.27
2023-04-06T15:02:55.427Z,13.33
2023-04-06T15:05:22.564Z,13.83
2023-04-06T15:07:49.505Z,13.40
2023-04-06T15:10:18.349Z,12.50
2023-04-06T15:12:45.670Z,13.20
2023-04-06T15:15:12.593Z,13.50
2023-04-06T15:17:39.880Z,13.70
2023-04-06T15:20:07.358Z,14.03
2023-04-06T15:22:34.332Z,14.90
2023-04-06T15:25:01.135Z,16.90
2023-04-06T15:27:28.026Z,16.20
2023-04-06T15:29:55.487Z,18.13
2023-04-06T15:32:23.004Z,15.10
2023-04-06T15:34:49.870Z,16.27
2023-04-06T15:37:16.848Z,18.13
2023-04-06T15:39:44.465Z,16.43
2023-04-06T15:42:11.832Z,17.63
2023-04-06T15:44:38.861Z,16.37
2023-04-06T15:47:06.031Z,21.07
2023-04-06T15:49:33.104Z,17.50
2023-04-06T15:52:00.017Z,16.33
2023-04-06T15:54:27.167Z,19.70
2023-04-06T15:56:54.061Z,20.20
2023-04-06T15:59:20.899Z,18.20
2023-04-06T16:01:47.988Z,17.33
2023-04-06T16:04:15.282Z,19.93
2023-04-06T16:06:42.362Z,17.27
2023-04-06T16:09:09.589Z,18.23
2023-04-06T16:11:37.029Z,19.63
2023-04-06T16:14:04.347Z,20.33
2023-04-06T16:16:31.464Z,16.20
2023-04-06T16:18:58.359Z,24.77
2023-04-06T16:21:26.832Z,20.50
2023-04-06T16:23:55.528Z,16.67
2023-04-06T16:26:23.637Z,16.27
2023-04-06T16:28:51.590Z,16.17
2023-04-06T16:31:23.028Z,17.03
2023-04-06T16:33:51.377Z,14.80
2023-04-06T16:36:29.663Z,20.10
2023-04-06T16:38:57.686Z,18.13
2023-04-06T16:41:24.573Z,15.93
2023-04-06T16:43:52.038Z,14.43
2023-04-06T16:46:19.174Z,20.40
2023-04-06T16:48:46.187Z,17.63
2023-04-06T16:51:13.195Z,14.67
2023-04-06T16:53:40.091Z,18.50
2023-04-06T16:58:37.887Z,17.60
2023-04-06T17:01:05.959Z,17.30
2023-04-06T17:03:34.643Z,17.93
2023-04-06T17:06:01.600Z,15.20
2023-04-06T17:08:28.508Z,14.57
2023-04-06T17:10:59.483Z,18.00
2023-04-06T17:13:30.607Z,14.50
2023-04-06T17:15:57.431Z,17.00
2023-04-06T17:18:24.581Z,18.37
2023-04-06T17:20:51.515Z,18.93
2023-04-06T17:23:18.457Z,17.93
2023-04-06T17:25:45.229Z,17.33
2023-04-06T17:28:13.416Z,19.47
2023-04-06T17:30:42.032Z,14.40
2023-04-06T17:33:09.632Z,19.50
2023-04-06T17:35:36.515Z,18.70
2023-04-06T17:38:03.382Z,16.63
2023-04-06T17:40:30.314Z,18.10
2023-04-06T17:42:57.051Z,17.33
2023-04-06T17:45:24.085Z,17.37
2023-04-06T17:47:50.957Z,19.77
2023-04-06T17:50:18.605Z,20.90
2023-04-06T17:55:17.865Z,17.07
2023-04-06T17:57:46.244Z,19.63
2023-04-06T18:00:15.397Z,20.03
2023-04-06T18:02:42.520Z,25.37
2023-04-06T18:05:10.129Z,25.73
2023-04-06T18:07:37.398Z,25.23
2023-04-06T18:10:04.769Z,26.50
2023-04-06T18:12:31.461Z,24.90
2023-04-06T18:14:58.635Z,26.50
2023-04-06T18:17:25.963Z,21.30
2023-04-06T18:19:52.866Z,25.03
2023-04-06T18:22:20.533Z,22.00
2023-04-06T18:24:47.757Z,23.93
2023-04-06T18:27:14.713Z,26.30
2023-04-06T18:29:44.281Z,25.60
2023-04-06T18:32:11.075Z,21.00
2023-04-06T18:34:43.137Z,21.10
2023-04-06T18:37:13.159Z,24.17
2023-04-06T18:39:40.241Z,20.20
2023-04-06T18:42:08.161Z,21.47
2023-04-06T18:44:35.077Z,20.80
2023-04-06T18:47:02.082Z,26.23
2023-04-06T18:49:29.701Z,21.87
2023-04-06T18:52:00.160Z,16.83
2023-04-06T18:54:28.649Z,18.40
2023-04-06T18:56:56.301Z,20.57
2023-04-06T18:59:23.792Z,17.03
2023-04-06T19:01:54.155Z,19.37
2023-04-06T19:04:22.133Z,23.33
2023-04-06T19:06:49.789Z,21.83
2023-04-06T19:09:17.186Z,18.30
2023-04-06T19:11:44.144Z,18.90
2023-04-06T19:14:11.034Z,19.87
2023-04-06T19:16:41.278Z,18.53
2023-04-06T19:19:08.436Z,21.63
2023-04-06T19:21:35.408Z,15.17
2023-04-06T19:24:02.539Z,16.30
2023-04-06T19:26:30.609Z,20.27
2023-04-06T19:29:07.977Z,19.90
2023-04-06T19:31:41.745Z,14.43
2023-04-06T19:34:12.001Z,14.87
2023-04-06T19:36:38.824Z,19.87
2023-04-06T19:39:08.428Z,16.20
2023-04-06T19:41:37.399Z,9.93
2023-04-06T19:44:04.217Z,12.90
2023-04-06T19:46:34.013Z,7.07
2023-04-06T19:49:01.671Z,10.63
2023-04-06T19:51:34.932Z,12.80
2023-04-06T19:54:03.428Z,5.20
2023-04-06T19:56:31.627Z,9.60
2023-04-06T19:59:00.777Z,7.37
2023-04-06T20:01:28.603Z,16.00
2023-04-06T20:03:55.488Z,15.33
2023-04-06T20:06:22.394Z,11.13
2023-04-06T20:08:49.433Z,9.70
2023-04-06T20:11:18.260Z,10.63
2023-04-06T20:13:45.364Z,12.50
2023-04-06T20:16:12.196Z,12.13
2023-04-06T20:18:39.032Z,16.20
2023-04-06T20:21:06.325Z,11.60
2023-04-06T20:23:35.277Z,13.70
2023-04-06T20:26:02.162Z,15.77
2023-04-06T20:28:28.935Z,12.83
2023-04-06T20:30:56.091Z,12.67
2023-04-06T20:33:24.151Z,12.87
2023-04-06T20:36:01.489Z,12.10
2023-04-06T20:40:59.928Z,16.43
2023-04-06T20:43:28.936Z,14.03
2023-04-06T20:45:59.606Z,9.00
2023-04-06T20:48:26.781Z,12.77
2023-04-06T20:50:53.915Z,13.87
2023-04-06T20:53:21.300Z,14.47
2023-04-06T20:55:48.370Z,13.10
2023-04-06T20:58:17.975Z,13.10
2023-04-06T21:00:49.840Z,10.40
2023-04-06T21:03:18.093Z,10.77
2023-04-06T21:05:57.386Z,11.63
2023-04-06T21:08:24.290Z,10.40
2023-04-06T21:10:51.123Z,12.83
2023-04-06T21:13:18.677Z,10.83
2023-04-06T21:15:47.696Z,7.53
2023-04-06T21:18:14.652Z,13.80
2023-04-06T21:20:41.762Z,8.50
2023-04-06T21:23:08.695Z,12.47
2023-04-06T21:25:39.072Z,10.83
2023-04-06T21:28:06.423Z,9.77
2023-04-06T21:30:37.261Z,10.17
2023-04-06T21:33:05.302Z,12.03
2023-04-06T21:35:32.908Z,9.10
2023-04-06T21:38:00.273Z,8.90
2023-04-06T21:40:27.173Z,9.27
2023-04-06T21:42:53.973Z,5.97
2023-04-06T21:45:20.887Z,7.57
2023-04-06T21:47:47.712Z,6.23
2023-04-06T21:50:14.586Z,4.93
2023-04-06T21:52:41.538Z,7.07
2023-04-06T21:55:10.158Z,6.47
2023-04-06T21:57:37.247Z,7.87
2023-04-06T22:00:10.140Z,7.17
2023-04-06T22:02:46.145Z,9.10
2023-04-06T22:05:13.429Z,10.00
2023-04-06T22:07:57.305Z,8.27
2023-04-06T22:10:31.495Z,8.10
2023-04-06T22:12:58.384Z,8.10
2023-04-06T22:15:25.345Z,9.63
2023-04-06T22:17:52.167Z,9.17
2023-04-06T22:20:19.283Z,9.23
2023-04-06T22:22:46.009Z,8.33
2023-04-06T22:25:13.341Z,10.70
2023-04-06T22:27:40.083Z,11.47
2023-04-06T22:30:08.135Z,11.87
2023-04-06T22:32:34.836Z,9.70
2023-04-06T22:35:01.656Z,12.87
2023-04-06T22:37:29.208Z,14.17
2023-04-06T22:39:56.199Z,14.70
2023-04-06T22:42:23.426Z,13.27
2023-04-06T22:44:50.549Z,12.77
2023-04-06T22:47:17.725Z,12.63
2023-04-06T22:49:44.670Z,10.63
2023-04-06T22:52:11.874Z,13.83
2023-04-06T22:54:39.057Z,15.93
2023-04-06T22:57:05.989Z,16.43
2023-04-06T22:59:32.743Z,18.07
2023-04-06T23:01:59.719Z,18.47
2023-04-06T23:04:26.738Z,11.90
2023-04-06T23:06:53.720Z,14.63
2023-04-06T23:09:20.605Z,11.37
2023-04-06T23:11:47.729Z,15.83
2023-04-06T23:14:14.878Z,14.97
2023-04-06T23:16:42.015Z,14.60
2023-04-06T23:19:08.803Z,12.70
2023-04-06T23:21:35.637Z,11.50
2023-04-06T23:24:02.689Z,20.03
2023-04-06T23:26:29.865Z,11.47
2023-04-06T23:28:56.618Z,11.50
2023-04-06T23:31:23.528Z,7.43
2023-04-06T23:33:50.393Z,10.60
2023-04-06T23:36:17.309Z,10.53
2023-04-06T23:38:44.094Z,15.70
2023-04-06T23:41:14.312Z,12.87
2023-04-06T23:43:41.231Z,10.03
2023-04-06T23:46:08.169Z,15.67
2023-04-06T23:48:35.040Z,12.90
2023-04-06T23:51:02.130Z,13.30
2023-04-06T23:53:29.020Z,14.77
2023-04-06T23:55:55.983Z,13.73
2023-04-06T23:58:22.904Z,19.43
